Time;durP1;ratioP1;P1;durP2;ratioP2;P2;SDS_P1;SDS_P2;PMS_P1;PMS_P2;Temp;Humidity;BMP_temperature;BMP_pressure;BME280_temperature;BME280_humidity;BME280_pressure;Samples;Min_cycle;Max_cycle;Signal;HPM_P1;HPM_P2
2023/03/10 00:00:04;;;;;;;22.65;14.00;;;2.00;93.00;;;;;;5102509;27;20061;-76
2023/03/10 00:02:33;;;;;;;21.88;13.82;;;2.00;92.90;;;;;;5102241;27;20046;-76
2023/03/10 00:04:58;;;;;;;21.45;13.80;;;2.00;92.90;;;;;;5119429;27;20047;-76
2023/03/10 00:07:24;;;;;;;21.90;14.00;;;2.00;92.90;;;;;;5118989;27;20495;-76
2023/03/10 00:09:50;;;;;;;20.35;13.25;;;2.00;92.90;;;;;;5102405;27;20039;-76
2023/03/10 00:12:16;;;;;;;20.27;13.15;;;2.00;92.90;;;;;;5101921;27;20126;-76
2023/03/10 00:14:42;;;;;;;22.73;14.27;;;2.00;92.90;;;;;;5085061;27;20047;-76
2023/03/10 00:17:07;;;;;;;23.33;13.10;;;2.00;92.90;;;;;;5101944;27;20121;-76
2023/03/10 00:19:33;;;;;;;22.25;13.93;;;2.00;92.90;;;;;;5102205;27;20046;-76
2023/03/10 00:22:01;;;;;;;21.65;13.90;;;2.00;92.90;;;;;;5118754;27;20031;-76
2023/03/10 00:24:27;;;;;;;22.30;14.25;;;2.00;92.90;;;;;;5118927;27;20050;-76
2023/03/10 00:26:52;;;;;;;20.33;12.55;;;2.00;92.90;;;;;;5085020;27;20039;-75
2023/03/10 00:29:18;;;;;;;19.92;13.10;;;2.00;93.00;;;;;;5085495;27;20035;-75
2023/03/10 00:31:44;;;;;;;21.13;13.35;;;2.00;93.00;;;;;;5119542;27;20096;-76
2023/03/10 00:34:11;;;;;;;18.65;12.02;;;1.90;93.10;;;;;;5119356;27;20061;-77
2023/03/10 00:36:38;;;;;;;23.30;13.90;;;2.00;93.00;;;;;;5119563;27;20035;-76
2023/03/10 00:39:04;;;;;;;22.45;13.52;;;2.00;93.20;;;;;;5119357;27;20043;-76
2023/03/10 00:41:32;;;;;;;20.77;12.88;;;2.00;93.20;;;;;;5118827;27;20062;-76
2023/03/10 00:43:59;;;;;;;21.20;12.93;;;1.90;93.30;;;;;;5120019;27;20032;-76
2023/03/10 00:46:26;;;;;;;21.95;12.98;;;1.90;93.10;;;;;;5118452;27;20039;-76
2023/03/10 00:48:52;;;;;;;19.42;13.38;;;2.00;93.10;;;;;;5118657;27;20468;-76
2023/03/10 00:51:20;;;;;;;19.17;12.77;;;2.00;93.20;;;;;;5101273;27;20073;-76
2023/03/10 00:53:45;;;;;;;20.25;12.73;;;2.00;93.20;;;;;;5101272;27;20043;-76
2023/03/10 00:56:20;;;;;;;19.55;12.27;;;2.00;93.10;;;;;;5101189;27;20050;-76
2023/03/10 00:58:49;;;;;;;19.73;12.52;;;2.00;93.10;;;;;;5118135;27;20039;-76
2023/03/10 01:01:21;;;;;;;18.33;12.10;;;2.00;93.20;;;;;;5101733;27;20390;-76
2023/03/10 01:03:49;;;;;;;24.95;13.52;;;2.00;93.20;;;;;;5099894;27;20035;-75
2023/03/10 01:06:15;;;;;;;21.98;14.38;;;2.00;93.20;;;;;;5101075;27;20043;-75
2023/03/10 01:08:41;;;;;;;21.92;13.63;;;2.00;93.20;;;;;;5084048;27;20062;-75
2023/03/10 01:11:07;;;;;;;22.05;14.80;;;2.00;93.20;;;;;;5100701;27;20039;-76
2023/03/10 01:13:33;;;;;;;25.40;16.17;;;2.00;93.30;;;;;;5100667;27;20050;-76
2023/03/10 01:15:59;;;;;;;23.35;14.90;;;2.00;93.40;;;;;;5100870;27;20043;-76
2023/03/10 01:18:25;;;;;;;23.67;15.10;;;2.00;93.30;;;;;;5100858;27;20169;-76
2023/03/10 01:20:50;;;;;;;28.08;17.63;;;2.00;93.40;;;;;;5100765;27;20031;-76
2023/03/10 01:23:22;;;;;;;25.83;17.25;;;2.00;93.40;;;;;;5083599;27;20039;-76
2023/03/10 01:25:48;;;;;;;27.08;17.60;;;2.00;93.40;;;;;;5100620;27;20125;-76
2023/03/10 01:28:13;;;;;;;25.67;16.40;;;2.00;93.50;;;;;;5117324;27;20078;-76
2023/03/10 01:30:40;;;;;;;31.10;18.38;;;2.00;93.30;;;;;;5100450;27;20135;-75
2023/03/10 01:33:07;;;;;;;29.00;16.70;;;2.00;93.50;;;;;;5099995;27;20126;-76
2023/03/10 01:35:33;;;;;;;29.25;18.60;;;2.00;93.50;;;;;;5117006;27;20510;-75
2023/03/10 01:37:58;;;;;;;26.17;17.02;;;2.10;93.50;;;;;;5099946;27;20042;-76
2023/03/10 01:40:25;;;;;;;27.17;16.83;;;2.10;93.20;;;;;;5116859;27;20039;-77
2023/03/10 01:42:52;;;;;;;24.05;15.32;;;2.10;93.20;;;;;;5100008;27;20039;-76
2023/03/10 01:45:18;;;;;;;22.95;14.93;;;2.00;93.20;;;;;;5099626;27;20803;-76
2023/03/10 01:47:43;;;;;;;24.45;16.05;;;2.10;93.30;;;;;;5116779;27;20108;-76
2023/03/10 01:50:16;;;;;;;26.52;16.80;;;2.10;93.30;;;;;;5116904;27;20122;-75
2023/03/10 01:52:51;;;;;;;25.02;16.45;;;2.10;93.30;;;;;;5100145;27;20399;-75
2023/03/10 01:55:29;;;;;;;23.70;16.00;;;2.10;93.20;;;;;;5099595;27;20046;-76
2023/03/10 01:57:56;;;;;;;22.05;13.85;;;2.10;93.10;;;;;;5116422;27;20035;-76
2023/03/10 02:00:24;;;;;;;21.45;14.70;;;2.10;93.20;;;;;;5099373;27;20069;-76
2023/03/10 02:02:57;;;;;;;22.67;14.88;;;2.10;93.20;;;;;;5099407;27;20490;-75
2023/03/10 02:05:24;;;;;;;21.15;13.55;;;2.10;93.20;;;;;;5116681;27;20442;-76
2023/03/10 02:07:50;;;;;;;19.50;12.98;;;2.10;93.20;;;;;;5099196;27;20047;-75
2023/03/10 02:10:16;;;;;;;19.20;11.65;;;2.10;93.20;;;;;;5099189;27;20043;-76
2023/03/10 02:12:42;;;;;;;18.90;12.93;;;2.10;93.20;;;;;;5116091;27;20043;-76
2023/03/10 02:15:10;;;;;;;20.85;13.75;;;2.10;93.20;;;;;;5099033;27;20100;-76
2023/03/10 02:17:36;;;;;;;20.15;12.93;;;2.00;93.20;;;;;;5116464;27;20043;-75
2023/03/10 02:20:19;;;;;;;19.13;12.52;;;2.00;93.20;;;;;;5099069;27;20080;-76
2023/03/10 02:22:47;;;;;;;18.05;12.38;;;2.00;93.10;;;;;;5099269;27;20352;-76
2023/03/10 02:25:55;;;;;;;21.73;12.80;;;2.00;93.30;;;;;;5115988;27;20043;-76
2023/03/10 02:28:21;;;;;;;17.30;10.93;;;2.00;93.10;;;;;;5099220;27;20043;-75
2023/03/10 02:30:51;;;;;;;20.02;12.88;;;2.00;93.20;;;;;;5099387;27;20502;-76
2023/03/10 02:33:26;;;;;;;18.85;11.10;;;2.00;93.10;;;;;;5116527;27;20567;-75
2023/03/10 02:35:52;;;;;;;16.00;11.13;;;2.10;93.10;;;;;;5099264;27;20058;-76
2023/03/10 02:38:18;;;;;;;17.35;11.23;;;2.10;93.20;;;;;;5099563;27;20031;-75
2023/03/10 02:40:46;;;;;;;17.95;12.30;;;2.00;93.20;;;;;;5099478;27;20120;-77
2023/03/10 02:43:12;;;;;;;18.02;12.18;;;2.00;93.20;;;;;;5116120;27;20039;-76
2023/03/10 02:45:41;;;;;;;16.77;11.43;;;2.00;93.20;;;;;;5099120;27;20601;-76
2023/03/10 02:48:09;;;;;;;18.15;12.30;;;2.00;93.10;;;;;;5116095;27;20046;-76
2023/03/10 02:50:37;;;;;;;17.98;11.50;;;1.90;93.20;;;;;;5115953;27;20130;-76
2023/03/10 02:53:24;;;;;;;19.55;12.57;;;1.90;93.30;;;;;;5115783;27;20047;-75
2023/03/10 02:55:51;;;;;;;17.73;11.05;;;1.90;93.20;;;;;;5098906;27;20176;-76
2023/03/10 02:58:19;;;;;;;18.13;11.45;;;1.90;93.40;;;;;;5115890;27;20042;-76
2023/03/10 03:00:47;;;;;;;18.02;11.70;;;2.00;93.30;;;;;;5098901;27;20122;-76
2023/03/10 03:03:15;;;;;;;19.60;13.32;;;2.00;93.20;;;;;;5116364;27;20046;-76
2023/03/10 03:05:41;;;;;;;20.92;12.88;;;2.00;93.40;;;;;;5098831;27;20042;-77
2023/03/10 03:08:08;;;;;;;19.90;12.38;;;1.90;93.20;;;;;;5065498;27;20114;-75
2023/03/10 03:10:34;;;;;;;21.23;12.60;;;1.90;93.40;;;;;;5099055;28;20039;-76
2023/03/10 03:13:00;;;;;;;24.83;13.70;;;1.90;93.30;;;;;;5115697;28;20047;-76
2023/03/10 03:15:26;;;;;;;18.73;12.23;;;1.90;93.20;;;;;;5065171;28;20049;-75
2023/03/10 03:17:53;;;;;;;17.77;11.38;;;1.90;93.40;;;;;;5115744;28;20386;-76
2023/03/10 03:20:20;;;;;;;17.60;11.73;;;1.90;93.30;;;;;;5099050;28;20047;-76
2023/03/10 03:22:47;;;;;;;18.42;11.95;;;1.90;93.40;;;;;;5081927;28;20035;-76
2023/03/10 03:25:15;;;;;;;18.65;12.70;;;1.90;93.50;;;;;;5099126;28;20039;-76
2023/03/10 03:27:42;;;;;;;18.23;11.60;;;1.80;93.40;;;;;;5118444;27;20079;-76
2023/03/10 03:30:12;;;;;;;19.85;12.68;;;1.90;93.50;;;;;;5102843;27;20039;-76
2023/03/10 03:32:38;;;;;;;20.05;13.05;;;1.90;93.30;;;;;;5119629;27;20043;-76
2023/03/10 03:35:09;;;;;;;19.67;12.55;;;1.90;93.40;;;;;;5119637;27;20043;-76
2023/03/10 03:37:34;;;;;;;21.52;14.05;;;1.90;93.30;;;;;;5102760;27;20035;-76
2023/03/10 03:40:00;;;;;;;21.50;13.85;;;1.90;93.40;;;;;;5102836;27;20066;-75
2023/03/10 03:42:26;;;;;;;18.88;13.07;;;1.80;93.30;;;;;;5119587;27;20035;-76
2023/03/10 03:44:52;;;;;;;19.45;12.95;;;1.80;93.40;;;;;;5119727;27;20089;-76
2023/03/10 03:47:17;;;;;;;20.52;12.75;;;1.80;93.40;;;;;;5068998;27;20479;-76
2023/03/10 03:49:43;;;;;;;19.45;13.32;;;1.80;93.30;;;;;;5102578;27;20043;-76
2023/03/10 03:52:09;;;;;;;22.35;13.52;;;1.80;93.30;;;;;;5102521;27;20126;-76
2023/03/10 03:54:34;;;;;;;21.15;12.90;;;1.80;93.20;;;;;;5119350;27;20116;-76
2023/03/10 03:57:00;;;;;;;22.10;12.82;;;1.80;93.30;;;;;;5102587;27;20039;-76
2023/03/10 03:59:26;;;;;;;21.17;14.00;;;1.80;93.40;;;;;;5102426;27;20038;-76
2023/03/10 04:01:51;;;;;;;21.27;14.20;;;1.70;93.40;;;;;;5085435;27;20780;-76
2023/03/10 04:04:17;;;;;;;24.90;15.43;;;1.70;93.30;;;;;;5102631;27;20043;-76
2023/03/10 04:06:43;;;;;;;25.30;16.00;;;1.70;93.30;;;;;;5085538;27;20206;-76
2023/03/10 04:09:12;;;;;;;27.13;16.30;;;1.70;93.30;;;;;;5102076;27;20054;-76
2023/03/10 04:11:38;;;;;;;25.45;16.92;;;1.70;93.50;;;;;;5102633;27;20099;-76
2023/03/10 04:14:04;;;;;;;24.65;16.20;;;1.70;93.50;;;;;;5085231;27;20039;-76
2023/03/10 04:16:29;;;;;;;22.42;14.05;;;1.70;93.40;;;;;;5102114;27;20071;-76
2023/03/10 04:18:55;;;;;;;26.60;16.52;;;1.70;93.40;;;;;;5102551;27;20386;-76
2023/03/10 04:21:21;;;;;;;24.80;17.15;;;1.70;93.40;;;;;;5102262;27;20356;-75
2023/03/10 04:23:46;;;;;;;28.25;17.50;;;1.70;93.50;;;;;;5101915;27;20091;-76
2023/03/10 04:26:13;;;;;;;23.80;14.98;;;1.60;93.60;;;;;;5119254;27;20096;-76
2023/03/10 04:28:38;;;;;;;25.08;15.65;;;1.60;93.50;;;;;;5102290;27;20126;-76
2023/03/10 04:31:09;;;;;;;27.10;16.63;;;1.60;93.50;;;;;;5101833;27;20526;-76
2023/03/10 04:33:35;;;;;;;25.45;16.73;;;1.60;93.50;;;;;;5102185;27;20391;-76
2023/03/10 04:36:03;;;;;;;26.30;16.13;;;1.50;93.40;;;;;;5101837;27;20039;-76
2023/03/10 04:38:29;;;;;;;25.00;16.52;;;1.50;93.50;;;;;;5118649;27;20074;-76
2023/03/10 04:40:55;;;;;;;22.17;14.50;;;1.50;93.50;;;;;;5120591;27;20064;-77
2023/03/10 04:43:21;;;;;;;24.60;14.77;;;1.40;93.50;;;;;;5104901;27;20039;-76
2023/03/10 04:45:47;;;;;;;26.08;16.80;;;1.50;93.60;;;;;;5104020;27;20371;-78
2023/03/10 04:48:13;;;;;;;24.75;15.95;;;1.40;93.40;;;;;;5104600;27;20046;-76
2023/03/10 04:50:39;;;;;;;27.20;16.42;;;1.40;93.60;;;;;;5119564;27;20043;-75
2023/03/10 04:53:05;;;;;;;25.90;16.70;;;1.40;93.70;;;;;;5101613;27;20395;-75
2023/03/10 04:55:31;;;;;;;25.90;15.82;;;1.30;93.70;;;;;;5118416;27;20039;-77
2023/03/10 04:57:57;;;;;;;25.17;15.40;;;1.40;93.70;;;;;;5101546;27;20073;-77
2023/03/10 05:00:23;;;;;;;27.38;16.85;;;1.30;93.80;;;;;;5101032;27;20038;-76
2023/03/10 05:02:49;;;;;;;27.83;17.48;;;1.30;93.70;;;;;;5101510;27;20478;-75
2023/03/10 05:05:14;;;;;;;26.15;16.45;;;1.40;93.70;;;;;;5101836;27;20043;-76
2023/03/10 05:07:41;;;;;;;25.40;16.85;;;1.40;93.60;;;;;;5101058;27;20566;-77
2023/03/10 05:10:09;;;;;;;27.92;18.15;;;1.40;93.60;;;;;;5118660;27;20099;-77
2023/03/10 05:12:36;;;;;;;30.98;18.58;;;1.40;93.60;;;;;;5101628;27;20424;-76
2023/03/10 05:15:03;;;;;;;31.80;19.58;;;1.30;93.70;;;;;;5101436;27;20065;-77
2023/03/10 05:17:29;;;;;;;28.55;17.33;;;1.30;93.70;;;;;;5084819;27;20070;-76
2023/03/10 05:19:56;;;;;;;33.53;19.38;;;1.30;93.70;;;;;;5101131;27;20429;-77
2023/03/10 05:22:22;;;;;;;33.75;19.83;;;1.30;93.70;;;;;;5100932;27;20045;-77
2023/03/10 05:24:48;;;;;;;30.83;18.83;;;1.30;93.80;;;;;;5100943;27;20035;-76
2023/03/10 05:27:17;;;;;;;31.83;18.73;;;1.30;93.70;;;;;;5118109;27;20082;-77
2023/03/10 05:29:43;;;;;;;29.83;17.90;;;1.30;93.70;;;;;;5117896;27;20039;-77
2023/03/10 05:32:09;;;;;;;36.08;20.33;;;1.30;93.70;;;;;;5117895;27;20454;-76
2023/03/10 05:34:34;;;;;;;35.17;21.08;;;1.30;93.80;;;;;;5117554;27;20074;-76
2023/03/10 05:37:00;;;;;;;35.85;20.40;;;1.20;93.90;;;;;;5100690;27;20038;-77
2023/03/10 05:39:26;;;;;;;34.65;19.42;;;1.20;93.90;;;;;;5083865;27;20200;-77
2023/03/10 05:41:52;;;;;;;32.50;18.98;;;1.20;94.00;;;;;;5117834;27;20503;-76
2023/03/10 05:44:17;;;;;;;41.80;22.80;;;1.20;94.10;;;;;;5100989;27;20076;-76
2023/03/10 05:46:43;;;;;;;35.15;21.48;;;1.30;93.90;;;;;;5119977;27;20046;-76
2023/03/10 05:49:09;;;;;;;39.40;21.45;;;1.20;94.00;;;;;;5087012;28;20126;-76
2023/03/10 05:51:35;;;;;;;38.97;23.95;;;1.20;94.00;;;;;;5100407;27;20039;-77
2023/03/10 05:54:01;;;;;;;41.72;23.70;;;1.20;94.10;;;;;;5117414;27;20037;-77
2023/03/10 05:56:26;;;;;;;52.00;26.50;;;1.20;94.00;;;;;;5117554;27;20061;-77
2023/03/10 05:58:52;;;;;;;42.33;24.08;;;1.20;94.10;;;;;;5100516;27;20071;-76
2023/03/10 06:01:18;;;;;;;42.40;23.42;;;1.20;94.00;;;;;;5100183;27;20545;-77
2023/03/10 06:03:44;;;;;;;36.78;20.98;;;1.20;94.00;;;;;;5100087;27;20042;-77
2023/03/10 06:06:10;;;;;;;44.05;23.17;;;1.20;94.00;;;;;;5100256;27;20035;-78
2023/03/10 06:08:36;;;;;;;41.20;23.08;;;1.10;94.00;;;;;;5066436;27;20063;-77
2023/03/10 06:11:03;;;;;;;41.97;23.15;;;1.20;94.00;;;;;;5100039;27;20505;-75
2023/03/10 06:13:30;;;;;;;35.53;19.90;;;1.20;93.90;;;;;;5116898;27;20104;-76
2023/03/10 06:16:02;;;;;;;38.15;21.92;;;1.10;94.00;;;;;;5116748;27;20062;-75
2023/03/10 06:18:28;;;;;;;33.85;20.65;;;1.20;93.90;;;;;;5116827;27;20091;-77
2023/03/10 06:20:54;;;;;;;35.33;20.38;;;1.10;94.00;;;;;;5099812;27;20031;-76
2023/03/10 06:23:21;;;;;;;41.70;22.17;;;1.10;94.10;;;;;;5116911;27;20046;-76
2023/03/10 06:26:00;;;;;;;35.50;21.50;;;1.10;94.20;;;;;;5116522;27;20050;-77
2023/03/10 06:28:31;;;;;;;45.38;23.05;;;1.10;94.20;;;;;;5116592;27;20039;-76
2023/03/10 06:31:01;;;;;;;41.80;22.10;;;1.10;94.30;;;;;;5116720;27;20119;-77
2023/03/10 06:33:29;;;;;;;32.88;19.95;;;1.10;94.40;;;;;;5116225;27;20042;-77
2023/03/10 06:35:55;;;;;;;35.63;19.75;;;1.10;94.40;;;;;;5115967;27;20483;-78
2023/03/10 06:38:21;;;;;;;32.13;18.63;;;1.20;94.20;;;;;;5116128;27;20045;-77
2023/03/10 06:40:48;;;;;;;38.85;19.23;;;1.20;94.30;;;;;;5116012;27;20095;-77
2023/03/10 06:43:14;;;;;;;28.48;16.90;;;1.20;94.30;;;;;;5116040;27;20034;-76
2023/03/10 06:45:43;;;;;;;30.13;17.65;;;1.20;94.20;;;;;;5116168;27;20050;-77
2023/03/10 06:48:10;;;;;;;26.88;15.85;;;1.30;94.20;;;;;;5116267;27;20039;-74
2023/03/10 06:50:39;;;;;;;30.73;17.83;;;1.30;94.10;;;;;;5116335;27;20035;-76
2023/03/10 06:53:04;;;;;;;30.27;16.77;;;1.30;94.20;;;;;;5115803;27;20063;-76
2023/03/10 06:55:30;;;;;;;27.40;15.82;;;1.40;94.10;;;;;;5115868;27;20062;-76
2023/03/10 06:57:56;;;;;;;28.40;17.17;;;1.40;94.10;;;;;;5116127;27;20031;-76
2023/03/10 07:00:22;;;;;;;25.67;14.38;;;1.30;94.20;;;;;;5098568;27;20475;-76
2023/03/10 07:02:47;;;;;;;24.60;14.73;;;1.30;94.30;;;;;;5097681;27;20059;-74
2023/03/10 07:05:13;;;;;;;25.30;15.18;;;1.30;94.20;;;;;;5098374;27;20039;-75
2023/03/10 07:07:39;;;;;;;24.80;14.43;;;1.40;94.40;;;;;;5098407;27;20055;-77
2023/03/10 07:10:06;;;;;;;25.50;16.20;;;1.40;94.40;;;;;;5115844;28;20061;-76
2023/03/10 07:12:32;;;;;;;26.55;15.15;;;1.40;94.40;;;;;;5098569;27;20035;-75
2023/03/10 07:14:57;;;;;;;24.20;14.55;;;1.40;94.50;;;;;;5098860;28;20038;-76
2023/03/10 07:17:23;;;;;;;22.83;14.68;;;1.50;94.30;;;;;;5098541;28;20122;-77
2023/03/10 07:19:49;;;;;;;24.40;15.00;;;1.50;94.20;;;;;;5115646;28;20046;-77
2023/03/10 07:22:15;;;;;;;23.33;14.63;;;1.50;94.10;;;;;;5098527;28;20031;-77
2023/03/10 07:24:41;;;;;;;23.33;15.10;;;1.50;94.20;;;;;;5081709;28;20043;-76
2023/03/10 07:27:06;;;;;;;22.83;15.05;;;1.60;94.20;;;;;;5098820;28;20043;-77
2023/03/10 07:29:32;;;;;;;23.27;15.43;;;1.60;94.10;;;;;;5081943;28;20495;-77
2023/03/10 07:31:58;;;;;;;21.08;12.73;;;1.50;94.10;;;;;;5081969;28;20054;-75
2023/03/10 07:34:23;;;;;;;22.23;14.00;;;1.60;94.10;;;;;;5115338;28;20448;-75
2023/03/10 07:36:49;;;;;;;21.90;13.93;;;1.60;94.00;;;;;;5098643;28;20031;-74
2023/03/10 07:39:15;;;;;;;20.70;13.40;;;1.60;94.10;;;;;;5098484;28;20113;-76
2023/03/10 07:41:41;;;;;;;23.05;13.52;;;1.60;93.90;;;;;;5115446;28;20039;-76
2023/03/10 07:44:07;;;;;;;22.33;12.90;;;1.60;94.00;;;;;;5081690;28;20042;-75
2023/03/10 07:46:32;;;;;;;21.60;12.68;;;1.60;94.00;;;;;;5098763;28;20050;-74
2023/03/10 07:49:02;;;;;;;20.15;12.13;;;1.60;94.00;;;;;;5081712;28;20479;-76
2023/03/10 07:51:29;;;;;;;19.02;11.77;;;1.60;93.90;;;;;;5082333;28;20122;-76
2023/03/10 07:53:54;;;;;;;22.15;13.38;;;1.60;93.90;;;;;;5115584;28;20047;-75
2023/03/10 07:56:20;;;;;;;20.50;13.10;;;1.60;93.90;;;;;;5098607;28;20104;-75
2023/03/10 07:58:46;;;;;;;20.25;12.15;;;1.50;94.00;;;;;;5098234;28;20122;-75
2023/03/10 08:01:17;;;;;;;19.73;12.52;;;1.60;93.90;;;;;;5115503;28;20122;-76
2023/03/10 08:03:43;;;;;;;19.40;12.63;;;1.60;94.00;;;;;;5115213;28;20586;-76
2023/03/10 08:06:16;;;;;;;21.27;12.73;;;1.60;93.90;;;;;;5098373;28;20039;-76
2023/03/10 08:08:41;;;;;;;21.65;12.32;;;1.60;93.90;;;;;;5115090;28;20055;-76
2023/03/10 08:11:09;;;;;;;20.63;11.30;;;1.60;93.90;;;;;;5115204;28;20107;-76
2023/03/10 08:13:35;;;;;;;21.52;12.70;;;1.60;93.80;;;;;;5117608;27;20047;-76
2023/03/10 08:16:01;;;;;;;21.70;12.82;;;1.60;93.90;;;;;;5102170;27;20506;-77
2023/03/10 08:18:28;;;;;;;22.23;12.65;;;1.70;93.70;;;;;;5085130;27;20126;-76
2023/03/10 08:20:55;;;;;;;21.02;12.10;;;1.60;93.80;;;;;;5119255;27;20087;-76
2023/03/10 08:23:21;;;;;;;20.27;12.93;;;1.60;93.70;;;;;;5101917;27;20091;-76
2023/03/10 08:25:47;;;;;;;22.83;14.32;;;1.60;93.80;;;;;;5085203;27;20067;-77
2023/03/10 08:28:13;;;;;;;20.60;12.88;;;1.60;93.80;;;;;;5102175;27;20478;-76
2023/03/10 08:30:39;;;;;;;18.92;12.85;;;1.60;93.90;;;;;;5118493;27;20422;-75
2023/03/10 08:33:08;;;;;;;22.05;12.38;;;1.60;93.70;;;;;;5118783;27;20042;-76
2023/03/10 08:35:36;;;;;;;20.38;12.43;;;1.60;93.70;;;;;;5102446;27;20453;-77
2023/03/10 08:38:03;;;;;;;20.17;12.60;;;1.60;93.70;;;;;;5118664;27;20039;-76
2023/03/10 08:40:29;;;;;;;21.77;12.43;;;1.60;93.70;;;;;;5085121;27;20084;-76
2023/03/10 08:42:55;;;;;;;27.10;14.82;;;1.60;93.80;;;;;;5101444;27;20038;-76
2023/03/10 08:45:21;;;;;;;22.05;13.38;;;1.60;93.80;;;;;;5118501;27;20407;-76
2023/03/10 08:47:46;;;;;;;25.48;13.73;;;1.60;93.80;;;;;;5118768;27;20070;-77
2023/03/10 08:50:13;;;;;;;21.13;13.68;;;1.60;93.70;;;;;;5101585;27;20122;-76
2023/03/10 08:52:39;;;;;;;20.42;12.95;;;1.70;93.70;;;;;;5119020;27;20043;-75
2023/03/10 08:55:06;;;;;;;25.25;14.18;;;1.70;93.80;;;;;;5104815;27;20053;-75
2023/03/10 08:57:33;;;;;;;25.67;15.52;;;1.70;93.80;;;;;;5121778;27;20047;-77
2023/03/10 08:59:58;;;;;;;23.98;15.70;;;1.70;93.70;;;;;;5121270;27;20031;-76
2023/03/10 09:02:25;;;;;;;23.50;15.13;;;1.80;93.50;;;;;;5103452;27;20035;-75
2023/03/10 09:04:51;;;;;;;23.00;14.05;;;1.70;93.60;;;;;;5118291;27;20039;-75
2023/03/10 09:07:17;;;;;;;26.52;16.27;;;1.70;93.60;;;;;;5101060;27;20064;-75
2023/03/10 09:09:43;;;;;;;26.27;15.55;;;1.70;93.50;;;;;;5118090;27;20066;-75
2023/03/10 09:12:09;;;;;;;25.77;15.27;;;1.70;93.50;;;;;;5100891;27;20047;-75
2023/03/10 09:14:36;;;;;;;21.52;13.68;;;1.70;93.50;;;;;;5101143;27;20151;-76
2023/03/10 09:17:03;;;;;;;24.50;15.38;;;1.70;93.50;;;;;;5101071;27;20045;-75
2023/03/10 09:19:29;;;;;;;24.08;15.32;;;1.70;93.40;;;;;;5117758;27;20039;-75
2023/03/10 09:21:56;;;;;;;24.85;14.73;;;1.70;93.50;;;;;;5100922;27;20042;-76
2023/03/10 09:24:22;;;;;;;22.52;14.27;;;1.70;93.40;;;;;;5099852;27;20040;-76
2023/03/10 09:26:48;;;;;;;23.35;14.25;;;1.70;93.40;;;;;;5100756;27;20046;-76
2023/03/10 09:29:14;;;;;;;22.95;13.95;;;1.70;93.30;;;;;;5117623;27;20031;-76
2023/03/10 09:31:40;;;;;;;22.52;14.85;;;1.70;93.40;;;;;;5100913;27;20047;-74
2023/03/10 09:34:07;;;;;;;26.38;14.90;;;1.70;93.40;;;;;;5117544;27;20037;-75
2023/03/10 09:36:33;;;;;;;24.70;15.82;;;1.70;93.30;;;;;;5083900;27;20494;-76
2023/03/10 09:38:59;;;;;;;25.05;15.20;;;1.70;93.30;;;;;;5117602;27;20039;-76
2023/03/10 09:42:07;;;;;;;20.83;13.27;;;1.70;93.30;;;;;;5117619;27;20074;-75
2023/03/10 09:44:37;;;;;;;24.83;14.00;;;1.80;93.30;;;;;;5100682;27;20043;-75
2023/03/10 09:47:08;;;;;;;21.45;13.70;;;1.70;93.30;;;;;;5117409;27;20046;-76
2023/03/10 09:49:51;;;;;;;23.75;15.52;;;1.70;93.30;;;;;;5117245;27;20505;-75
2023/03/10 09:52:28;;;;;;;19.17;11.73;;;1.70;93.40;;;;;;5100303;27;20038;-76
2023/03/10 09:55:20;;;;;;;20.60;12.32;;;1.70;93.50;;;;;;5117103;27;20127;-76
2023/03/10 09:57:52;;;;;;;22.65;12.73;;;1.80;93.50;;;;;;5117632;27;20148;-76
2023/03/10 10:00:25;;;;;;;18.27;10.68;;;1.70;93.50;;;;;;5117188;27;20097;-76
2023/03/10 10:03:01;;;;;;;21.08;12.98;;;1.80;93.40;;;;;;5117015;27;20134;-77
2023/03/10 10:05:31;;;;;;;19.85;12.75;;;1.80;93.50;;;;;;5116951;27;20049;-77
2023/03/10 10:08:00;;;;;;;21.80;13.48;;;1.90;93.50;;;;;;5099975;27;20449;-77
2023/03/10 10:10:30;;;;;;;19.95;11.65;;;1.80;93.40;;;;;;5116803;27;20119;-77
2023/03/10 10:13:14;;;;;;;22.27;13.65;;;1.90;93.40;;;;;;5116861;27;20482;-77
2023/03/10 10:15:49;;;;;;;23.60;15.32;;;1.90;93.40;;;;;;5117077;27;20120;-78
2023/03/10 10:18:42;;;;;;;22.75;14.07;;;1.90;93.30;;;;;;5099738;27;20035;-77
2023/03/10 10:21:23;;;;;;;23.95;15.73;;;2.00;93.30;;;;;;5112561;27;20411;-77
2023/03/10 10:23:51;;;;;;;24.00;15.02;;;2.10;93.20;;;;;;5099592;27;20118;-77
2023/03/10 10:26:25;;;;;;;24.00;14.80;;;2.10;93.20;;;;;;5099640;27;20046;-77
2023/03/10 10:29:00;;;;;;;20.55;12.85;;;2.10;93.20;;;;;;5082902;27;20043;-77
2023/03/10 10:31:30;;;;;;;23.80;15.52;;;2.00;93.20;;;;;;5116534;27;20131;-77
2023/03/10 10:33:58;;;;;;;26.67;16.58;;;2.00;93.30;;;;;;5116385;27;20046;-77
2023/03/10 10:36:26;;;;;;;24.25;15.20;;;2.00;93.30;;;;;;5099322;27;20047;-77
2023/03/10 10:38:54;;;;;;;24.13;16.00;;;2.00;93.30;;;;;;5116843;27;20039;-77
2023/03/10 10:41:33;;;;;;;25.38;14.95;;;2.00;93.30;;;;;;5116483;27;20054;-77
2023/03/10 10:44:07;;;;;;;24.95;15.50;;;2.00;93.30;;;;;;5099438;27;20039;-77
2023/03/10 10:46:32;;;;;;;23.17;14.33;;;2.10;93.30;;;;;;5116299;27;20057;-77
2023/03/10 10:49:18;;;;;;;23.80;14.73;;;2.10;93.20;;;;;;5116412;27;20367;-77
2023/03/10 10:52:05;;;;;;;24.17;14.18;;;2.10;93.20;;;;;;5099187;27;20044;-77
2023/03/10 10:54:40;;;;;;;23.23;14.52;;;2.10;93.20;;;;;;5116142;27;20039;-77
2023/03/10 10:57:17;;;;;;;28.70;18.08;;;2.10;93.10;;;;;;5099473;27;20074;-78
2023/03/10 10:59:43;;;;;;;27.80;15.55;;;2.10;93.10;;;;;;5116173;27;20047;-76
2023/03/10 11:02:38;;;;;;;28.13;17.58;;;2.10;93.10;;;;;;5116389;27;20042;-76
2023/03/10 11:05:15;;;;;;;;;;;2.10;93.10;;;;;;5095514;27;20425;-75
2023/03/10 11:07:42;;;;;;;32.30;19.80;;;2.10;93.10;;;;;;5116146;27;19922;-76
2023/03/10 11:10:17;;;;;;;30.77;19.00;;;2.10;93.00;;;;;;5116095;27;20058;-75
2023/03/10 11:12:45;;;;;;;33.70;20.95;;;2.10;93.00;;;;;;5116041;27;20054;-76
2023/03/10 11:15:23;;;;;;;31.23;20.60;;;2.10;93.10;;;;;;5115859;27;20035;-76
2023/03/10 11:17:55;;;;;;;34.38;19.90;;;2.10;93.10;;;;;;5116023;28;20038;-75
2023/03/10 11:20:45;;;;;;;32.85;20.73;;;2.10;93.00;;;;;;5098858;28;20031;-76
2023/03/10 11:23:26;;;;;;;27.20;17.15;;;2.20;93.00;;;;;;5098831;28;20043;-76
2023/03/10 11:26:05;;;;;;;31.80;19.80;;;2.20;93.10;;;;;;5098961;28;20037;-76
2023/03/10 11:28:54;;;;;;;27.33;17.85;;;2.40;93.20;;;;;;5116073;28;20053;-76
2023/03/10 11:31:52;;;;;;;30.42;18.85;;;2.40;93.10;;;;;;5098899;28;20121;-76
2023/03/10 11:34:21;;;;;;;28.20;17.70;;;2.40;93.10;;;;;;5115878;28;20035;-76
2023/03/10 11:37:23;;;;;;;31.30;18.75;;;2.40;93.00;;;;;;5115589;28;20047;-76
2023/03/10 11:40:20;;;;;;;28.60;17.50;;;2.40;93.00;;;;;;5116079;28;20039;-76
2023/03/10 11:43:07;;;;;;;31.52;18.50;;;2.40;93.00;;;;;;5115691;28;20125;-76
2023/03/10 11:45:53;;;;;;;28.17;17.95;;;2.40;92.90;;;;;;5098825;28;20069;-76
2023/03/10 11:48:27;;;;;;;27.92;17.70;;;2.40;92.90;;;;;;5117925;27;20379;-76
2023/03/10 11:50:59;;;;;;;26.20;17.05;;;2.40;92.80;;;;;;5102726;27;20042;-77
2023/03/10 11:53:24;;;;;;;34.17;18.92;;;2.40;92.80;;;;;;5119564;27;20567;-76
2023/03/10 11:55:52;;;;;;;24.70;15.57;;;2.40;92.80;;;;;;5119426;27;20044;-76
2023/03/10 11:58:44;;;;;;;27.63;16.67;;;2.40;92.80;;;;;;5102854;27;20057;-76
2023/03/10 12:01:16;;;;;;;25.48;15.32;;;2.40;92.80;;;;;;5068521;27;20146;-76
2023/03/10 12:03:52;;;;;;;22.88;13.68;;;2.40;92.80;;;;;;5102438;27;20189;-76
2023/03/10 12:06:36;;;;;;;25.98;13.52;;;2.50;92.70;;;;;;5119473;27;20499;-76
2023/03/10 12:09:04;;;;;;;23.80;12.88;;;2.40;92.60;;;;;;5102282;27;20185;-76
2023/03/10 12:11:30;;;;;;;21.30;11.90;;;2.40;92.60;;;;;;5119154;27;20078;-76
2023/03/10 12:13:59;;;;;;;19.90;11.82;;;2.40;92.60;;;;;;5118850;27;20535;-75
2023/03/10 12:16:32;;;;;;;24.85;12.77;;;2.30;92.60;;;;;;5118983;27;20047;-76
2023/03/10 12:18:58;;;;;;;24.83;12.60;;;2.40;92.70;;;;;;5119155;27;20045;-75
2023/03/10 12:21:29;;;;;;;24.30;13.05;;;2.30;92.80;;;;;;5101942;27;20459;-76
2023/03/10 12:23:57;;;;;;;20.65;12.63;;;2.40;92.70;;;;;;5118925;27;20087;-75
2023/03/10 12:27:02;;;;;;;21.00;11.05;;;2.40;92.70;;;;;;5118887;27;20046;-75
2023/03/10 12:29:27;;;;;;;19.20;9.90;;;2.60;92.80;;;;;;5101937;27;20031;-76
2023/03/10 12:31:54;;;;;;;18.67;9.90;;;2.60;92.50;;;;;;5153118;27;20449;-76
2023/03/10 12:34:28;;;;;;;16.73;9.68;;;2.60;92.20;;;;;;5118588;27;20050;-76
2023/03/10 12:37:08;;;;;;;17.83;9.38;;;2.60;92.10;;;;;;5101557;27;20051;-75
2023/03/10 12:39:41;;;;;;;15.50;9.13;;;2.60;91.90;;;;;;5118692;27;20117;-75
2023/03/10 12:42:31;;;;;;;18.73;5.18;;;2.60;91.80;;;;;;5118396;27;20487;-75
2023/03/10 12:45:17;;;;;;;15.65;7.47;;;2.60;91.90;;;;;;5118673;27;20092;-76
2023/03/10 12:47:42;;;;;;;13.15;6.85;;;2.60;91.70;;;;;;5117498;27;20055;-75